Time;durP1;ratioP1;P1;durP2;ratioP2;P2;SDS_P1;SDS_P2;PMS_P1;PMS_P2;Temp;Humidity;BMP_temperature;BMP_pressure;BME280_temperature;BME280_humidity;BME280_pressure;Samples;Min_cycle;Max_cycle;Signal;HPM_P1;HPM_P2
2024/01/01 00:00:37;;;;;;;60.42;31.92;;;;;;;8.36;100.00;99699.69;5098622;27;20036;-75
2024/01/01 00:03:03;;;;;;;54.42;29.88;;;;;;;8.34;100.00;99696.31;5076406;27;20098;-74
2024/01/01 00:05:29;;;;;;;69.85;36.42;;;;;;;8.36;100.00;99699.69;5093302;27;20138;-74
2024/01/01 00:07:54;;;;;;;55.25;30.08;;;;;;;8.38;100.00;99703.94;5088167;27;20067;-74
2024/01/01 00:10:20;;;;;;;76.05;38.47;;;;;;;8.36;100.00;99697.91;5094801;27;20054;-74
2024/01/01 00:12:46;;;;;;;67.95;33.95;;;;;;;8.41;100.00;99695.75;5094054;27;20072;-74
2024/01/01 00:15:12;;;;;;;50.63;28.25;;;;;;;8.40;100.00;99699.38;5078561;27;20035;-74
2024/01/01 00:17:38;;;;;;;55.45;23.90;;;;;;;8.40;100.00;99698.53;5092096;27;20111;-75
2024/01/01 00:20:05;;;;;;;49.20;26.48;;;;;;;8.42;100.00;99692.13;5087499;27;20028;-74
2024/01/01 00:22:30;;;;;;;52.97;24.95;;;;;;;8.47;100.00;99697.97;5095026;27;20040;-73
2024/01/01 00:24:57;;;;;;;49.03;24.85;;;;;;;8.50;100.00;99700.41;5095588;27;20039;-74
2024/01/01 00:27:22;;;;;;;51.33;23.67;;;;;;;8.43;100.00;99698.28;5100870;27;20073;-75
2024/01/01 00:29:48;;;;;;;45.50;25.20;;;;;;;8.35;100.00;99693.53;5100040;27;20070;-74
2024/01/01 00:32:13;;;;;;;43.13;23.80;;;;;;;8.34;100.00;99693.66;5073438;27;20032;-74
2024/01/01 00:34:39;;;;;;;53.75;27.73;;;;;;;8.43;100.00;99692.97;5092049;27;20043;-74
2024/01/01 00:37:04;;;;;;;48.50;25.35;;;;;;;8.46;100.00;99695.44;5065282;28;20045;-74
2024/01/01 00:39:30;;;;;;;46.05;25.25;;;;;;;8.48;100.00;99693.50;5098382;27;20075;-74
2024/01/01 00:41:55;;;;;;;118.68;71.28;;;;;;;8.45;100.00;99699.91;5090548;27;20562;-75
2024/01/01 00:44:21;;;;;;;57.90;28.90;;;;;;;8.38;100.00;99698.63;5067928;27;20048;-74
2024/01/01 00:46:47;;;;;;;62.80;30.48;;;;;;;8.39;100.00;99703.00;5093004;27;20308;-74
2024/01/01 00:49:12;;;;;;;50.50;27.67;;;;;;;8.46;100.00;99690.13;5098799;27;20028;-75
2024/01/01 00:51:38;;;;;;;52.40;27.15;;;;;;;8.36;100.00;99689.06;5074158;28;20036;-74
2024/01/01 00:54:03;;;;;;;55.53;27.98;;;;;;;8.37;100.00;99690.78;5081252;28;20045;-74
2024/01/01 00:56:29;;;;;;;66.05;31.85;;;;;;;8.37;100.00;99696.09;5068682;28;20889;-74
2024/01/01 00:58:54;;;;;;;64.22;31.30;;;;;;;8.23;100.00;99695.28;5069511;28;20040;-75
2024/01/01 01:01:20;;;;;;;56.30;30.52;;;;;;;8.36;100.00;99700.56;5077227;27;20070;-74
2024/01/01 01:03:45;;;;;;;59.58;29.38;;;;;;;8.39;100.00;99696.84;5098900;27;20040;-74
2024/01/01 01:06:10;;;;;;;55.35;29.17;;;;;;;8.27;100.00;99703.84;5103370;27;22292;-74
2024/01/01 01:08:36;;;;;;;46.47;23.90;;;;;;;8.36;100.00;99699.69;5092322;28;20055;-74
2024/01/01 01:11:02;;;;;;;43.67;20.02;;;;;;;8.41;100.00;99698.41;5090912;28;20040;-74
2024/01/01 01:13:27;;;;;;;49.53;23.88;;;;;;;8.38;100.00;99708.41;5075670;27;20458;-73
2024/01/01 01:15:53;;;;;;;35.25;17.65;;;;;;;8.25;100.00;99700.47;5084932;28;20024;-75
2024/01/01 01:18:18;;;;;;;27.45;12.25;;;;;;;8.38;100.00;99705.75;5096197;27;20028;-74
2024/01/01 01:20:44;;;;;;;19.77;10.18;;;;;;;8.48;100.00;99710.31;5098039;27;20654;-74
2024/01/01 01:23:10;;;;;;;13.30;7.50;;;;;;;8.35;100.00;99705.97;5080098;27;20042;-74
2024/01/01 01:25:36;;;;;;;8.88;4.60;;;;;;;8.23;100.00;99705.00;5083873;27;20031;-74
2024/01/01 01:28:02;;;;;;;8.57;3.75;;;;;;;8.14;100.00;99721.63;5095727;27;20121;-74
2024/01/01 01:30:28;;;;;;;7.85;3.00;;;;;;;8.19;100.00;99717.69;5107619;27;21024;-74
2024/01/01 01:32:54;;;;;;;11.27;4.35;;;;;;;8.13;100.00;99711.94;5088004;28;20057;-74
2024/01/01 01:35:19;;;;;;;8.88;3.80;;;;;;;8.01;100.00;99721.63;5077361;27;21094;-75
2024/01/01 01:37:45;;;;;;;12.55;4.80;;;;;;;7.92;100.00;99730.25;5101551;27;20056;-74
2024/01/01 01:40:11;;;;;;;5.25;2.92;;;;;;;7.76;100.00;99735.78;5099976;27;20032;-74
2024/01/01 01:42:36;;;;;;;8.15;3.20;;;;;;;7.80;100.00;99729.31;5103173;27;20027;-74
2024/01/01 01:45:02;;;;;;;7.30;3.35;;;;;;;7.80;100.00;99739.94;5092822;27;20032;-74
2024/01/01 01:47:28;;;;;;;12.93;4.32;;;;;;;7.68;100.00;99735.44;5103434;28;21605;-74
2024/01/01 01:49:54;;;;;;;6.90;3.90;;;;;;;7.79;100.00;99743.53;5101255;27;20106;-74
2024/01/01 01:52:21;;;;;;;10.25;4.75;;;;;;;7.86;100.00;99746.59;5083149;28;20043;-74
2024/01/01 01:54:49;;;;;;;12.50;4.35;;;;;;;7.80;100.00;99753.19;5095138;27;20142;-74
2024/01/01 01:57:14;;;;;;;10.32;4.05;;;;;;;7.71;100.00;99732.59;5106042;27;20288;-74
2024/01/01 01:59:43;;;;;;;7.50;4.03;;;;;;;7.75;100.00;99752.66;5115748;27;20039;-74
2024/01/01 02:02:12;;;;;;;8.52;3.75;;;;;;;7.76;100.00;99746.41;5114352;27;20036;-74
2024/01/01 02:04:38;;;;;;;7.13;3.15;;;;;;;7.76;100.00;99747.25;5100325;28;20095;-73
2024/01/01 02:07:04;;;;;;;6.72;3.60;;;;;;;7.63;100.00;99741.09;5111040;27;20043;-73
2024/01/01 02:09:31;;;;;;;7.68;3.20;;;;;;;7.61;100.00;99745.66;5101324;27;20036;-74
2024/01/01 02:11:57;;;;;;;12.40;3.90;;;;;;;7.64;100.00;99736.66;5119810;27;20455;-74
2024/01/01 02:14:24;;;;;;;7.18;3.20;;;;;;;7.64;100.00;99734.84;5104846;27;20036;-74
2024/01/01 02:16:50;;;;;;;12.23;3.22;;;;;;;7.63;100.00;99740.22;5119393;27;20062;-74
2024/01/01 02:19:20;;;;;;;10.88;3.15;;;;;;;7.69;100.00;99734.53;5112573;27;20016;-73
2024/01/01 02:21:50;;;;;;;10.25;3.58;;;;;;;7.49;100.00;99731.44;5117135;27;20116;-74
2024/01/01 02:24:16;;;;;;;10.77;3.25;;;;;;;7.39;100.00;99732.16;5115886;27;20040;-74
2024/01/01 02:26:43;;;;;;;11.13;3.88;;;;;;;7.45;100.00;99739.69;5103597;28;20081;-74
2024/01/01 02:29:09;;;;;;;8.18;3.22;;;;;;;7.51;100.00;99752.53;5103609;28;20556;-74
2024/01/01 02:31:35;;;;;;;10.80;3.58;;;;;;;7.53;100.00;99737.38;5114669;27;20080;-74
2024/01/01 02:34:01;;;;;;;13.05;3.15;;;;;;;7.53;100.00;99746.19;5112479;27;20473;-74
2024/01/01 02:36:27;;;;;;;10.85;2.75;;;;;;;7.63;100.00;99743.75;5102864;27;20055;-74
2024/01/01 02:38:52;;;;;;;13.20;3.83;;;;;;;7.56;100.00;99742.47;5104337;27;20126;-74
2024/01/01 02:41:18;;;;;;;12.95;2.67;;;;;;;7.52;100.00;99740.97;5090850;27;20137;-74
2024/01/01 02:43:43;;;;;;;10.10;2.83;;;;;;;7.62;100.00;99752.66;5103997;27;20039;-74
2024/01/01 02:46:09;;;;;;;17.10;4.15;;;;;;;7.51;100.00;99745.44;5107562;27;20113;-74
2024/01/01 02:48:34;;;;;;;9.95;3.10;;;;;;;7.48;100.00;99750.09;5098045;27;20727;-74
2024/01/01 02:51:00;;;;;;;10.75;3.55;;;;;;;7.56;100.00;99755.72;5068256;27;20447;-74
2024/01/01 02:53:25;;;;;;;13.57;3.90;;;;;;;7.48;100.00;99744.78;5106612;27;20032;-74
2024/01/01 02:55:51;;;;;;;11.40;3.53;;;;;;;7.64;100.00;99752.56;5109682;27;20556;-74
2024/01/01 02:58:16;;;;;;;14.95;4.40;;;;;;;7.68;100.00;99756.69;5088522;27;20393;-74
2024/01/01 03:00:46;;;;;;;10.27;3.10;;;;;;;7.73;100.00;99744.81;5099214;27;20028;-74
2024/01/01 03:03:12;;;;;;;10.93;3.42;;;;;;;7.59;100.00;99752.03;5101207;27;20039;-74
2024/01/01 03:05:37;;;;;;;9.57;3.65;;;;;;;7.46;100.00;99757.31;5082889;28;20035;-74
2024/01/01 03:08:03;;;;;;;15.25;4.78;;;;;;;7.57;100.00;99756.56;5102090;27;20131;-74
2024/01/01 03:10:29;;;;;;;15.18;3.60;;;;;;;7.46;100.00;99752.84;5097888;27;20113;-74
2024/01/01 03:12:54;;;;;;;22.20;3.97;;;;;;;7.28;100.00;99751.47;5102120;27;20036;-75
2024/01/01 03:15:20;;;;;;;20.25;5.05;;;;;;;7.28;100.00;99759.41;5058956;28;20039;-74
2024/01/01 03:17:45;;;;;;;21.05;4.03;;;;;;;7.33;100.00;99754.66;5093414;28;20047;-74
2024/01/01 03:20:11;;;;;;;13.93;3.90;;;;;;;7.25;100.00;99755.16;5104508;27;20728;-74
2024/01/01 03:22:37;;;;;;;18.85;4.30;;;;;;;7.25;100.00;99749.84;5105148;27;20044;-74
2024/01/01 03:25:03;;;;;;;19.90;4.30;;;;;;;7.25;100.00;99751.66;5087644;27;20044;-74
2024/01/01 03:27:29;;;;;;;20.80;5.07;;;;;;;7.34;100.00;99752.84;5104727;27;20027;-74
2024/01/01 03:29:57;;;;;;;18.27;4.40;;;;;;;7.33;100.00;99749.34;5105344;27;20035;-74
2024/01/01 03:32:23;;;;;;;12.70;3.67;;;;;;;7.32;100.00;99739.66;5082542;27;20034;-74
2024/01/01 03:34:48;;;;;;;15.48;3.88;;;;;;;7.25;100.00;99746.34;5072777;27;20398;-74
2024/01/01 03:37:14;;;;;;;18.17;4.07;;;;;;;7.15;100.00;99719.63;5106934;27;20044;-74
2024/01/01 03:39:40;;;;;;;16.02;3.55;;;;;;;7.21;100.00;99744.84;5108891;27;20050;-74
2024/01/01 03:42:05;;;;;;;15.13;4.80;;;;;;;7.08;100.00;99725.41;5098464;27;20036;-74
2024/01/01 03:44:31;;;;;;;17.10;3.72;;;;;;;7.11;100.00;99741.13;5101976;27;20035;-74
2024/01/01 03:46:56;;;;;;;18.05;4.03;;;;;;;7.09;100.00;99743.03;5079770;27;20769;-74
2024/01/01 03:49:22;;;;;;;18.45;4.38;;;;;;;7.04;100.00;99748.66;5080001;27;20093;-74
2024/01/01 03:51:47;;;;;;;14.43;3.25;;;;;;;7.09;100.00;99743.03;5090775;27;20032;-74
2024/01/01 03:54:14;;;;;;;14.50;4.00;;;;;;;7.18;100.00;99747.72;5080495;27;20044;-74
2024/01/01 03:56:40;;;;;;;15.90;3.80;;;;;;;7.22;100.00;99746.53;5103535;27;20180;-74
2024/01/01 03:59:05;;;;;;;23.65;4.28;;;;;;;7.21;100.00;99744.84;5075501;28;20670;-74
2024/01/01 04:01:31;;;;;;;10.68;3.22;;;;;;;7.17;100.00;99751.31;5089222;27;20093;-74
2024/01/01 04:04:03;;;;;;;20.65;4.05;;;;;;;7.21;100.00;99758.97;5081574;27;20036;-74
2024/01/01 04:06:28;;;;;;;23.35;3.90;;;;;;;7.13;100.00;99747.16;5058949;28;20036;-74
2024/01/01 04:08:54;;;;;;;21.48;3.90;;;;;;;7.09;100.00;99743.88;5089274;27;20192;-74
2024/01/01 04:11:20;;;;;;;26.20;4.07;;;;;;;7.24;100.00;99745.50;5086435;27;20042;-74
2024/01/01 04:13:45;;;;;;;18.77;4.28;;;;;;;7.21;100.00;99748.34;5088407;27;20106;-74
2024/01/01 04:16:11;;;;;;;18.00;4.10;;;;;;;7.23;100.00;99751.78;5101531;27;20039;-74
2024/01/01 04:18:37;;;;;;;19.40;3.47;;;;;;;7.09;100.00;99737.75;5096266;27;20050;-74
2024/01/01 04:21:03;;;;;;;18.45;3.88;;;;;;;7.10;100.00;99748.22;5094523;27;20074;-74
2024/01/01 04:23:29;;;;;;;16.15;2.95;;;;;;;7.09;100.00;99759.78;5100861;27;20055;-74
2024/01/01 04:25:55;;;;;;;25.85;4.05;;;;;;;7.15;100.00;99750.56;5101620;27;20025;-74
2024/01/01 04:28:20;;;;;;;19.10;3.58;;;;;;;7.22;100.00;99747.41;5087586;28;20023;-74
2024/01/01 04:30:46;;;;;;;16.70;3.47;;;;;;;7.25;100.00;99755.16;5097365;27;20036;-74
2024/01/01 04:33:11;;;;;;;18.88;3.35;;;;;;;7.24;100.00;99747.31;5094528;27;20036;-74
2024/01/01 04:35:37;;;;;;;16.40;3.33;;;;;;;7.28;100.00;99751.47;5081895;27;20040;-73
2024/01/01 04:38:03;;;;;;;16.42;3.25;;;;;;;7.37;100.00;99748.16;5090454;28;20444;-73
2024/01/01 04:40:28;;;;;;;14.38;3.55;;;;;;;7.41;100.00;99756.78;5097655;27;20031;-73
2024/01/01 04:42:55;;;;;;;21.27;3.50;;;;;;;7.53;100.00;99764.75;5091591;28;21246;-73
2024/01/01 04:45:21;;;;;;;24.10;3.67;;;;;;;7.56;100.00;99765.50;5091024;28;20062;-73
2024/01/01 04:47:46;;;;;;;16.08;3.50;;;;;;;7.56;100.00;99771.66;5094606;27;20036;-73
2024/01/01 04:50:12;;;;;;;21.55;4.85;;;;;;;7.64;100.00;99771.97;5095077;27;20065;-74
2024/01/01 04:52:37;;;;;;;14.13;4.18;;;;;;;7.58;100.00;99767.09;5103938;27;20070;-73
2024/01/01 04:55:03;;;;;;;18.15;4.50;;;;;;;7.62;100.00;99759.75;5083072;27;20621;-73
2024/01/01 04:57:29;;;;;;;24.70;3.72;;;;;;;7.65;100.00;99778.13;5099327;27;20055;-73
2024/01/01 04:59:54;;;;;;;21.40;4.07;;;;;;;7.54;100.00;99776.22;5096628;27;20035;-73
2024/01/01 05:02:20;;;;;;;22.67;3.30;;;;;;;7.57;100.00;99769.84;5101307;27;20132;-73
2024/01/01 05:04:46;;;;;;;17.05;3.30;;;;;;;7.45;100.00;99763.56;5097055;27;20040;-73
2024/01/01 05:07:11;;;;;;;13.95;3.15;;;;;;;7.49;100.00;99781.84;5103485;27;20044;-73
2024/01/01 05:09:36;;;;;;;13.90;3.20;;;;;;;7.45;100.00;99785.63;5101201;27;20047;-74
2024/01/01 05:12:02;;;;;;;10.95;3.50;;;;;;;7.38;100.00;99775.53;5095921;27;20165;-73
2024/01/01 05:14:28;;;;;;;13.95;3.33;;;;;;;7.41;100.00;99770.03;5100030;27;20040;-73
2024/01/01 05:16:53;;;;;;;14.57;3.42;;;;;;;7.47;100.00;99781.06;5090279;28;20545;-73
2024/01/01 05:19:19;;;;;;;14.88;3.42;;;;;;;7.48;100.00;99774.84;5075817;27;20460;-74
2024/01/01 05:21:44;;;;;;;13.93;2.53;;;;;;;7.52;100.00;99778.09;5077277;28;20575;-73
2024/01/01 05:24:10;;;;;;;16.67;3.35;;;;;;;7.53;100.00;99791.28;5093425;27;20067;-73
2024/01/01 05:26:35;;;;;;;15.55;2.90;;;;;;;7.62;100.00;99791.59;5101487;27;20035;-73
2024/01/01 05:29:01;;;;;;;10.65;2.63;;;;;;;7.65;100.00;99802.84;5101389;27;20084;-73
2024/01/01 05:31:26;;;;;;;12.73;2.88;;;;;;;7.52;100.00;99788.72;5087772;27;20043;-73
2024/01/01 05:33:52;;;;;;;15.50;2.75;;;;;;;7.69;100.00;99803.50;5094496;27;20062;-73
2024/01/01 05:36:17;;;;;;;13.23;3.05;;;;;;;7.66;100.00;99799.25;5098833;27;20524;-74
2024/01/01 05:38:43;;;;;;;11.32;2.60;;;;;;;7.59;100.00;99799.78;5098281;27;20035;-73
2024/01/01 05:41:12;;;;;;;15.23;3.50;;;;;;;7.57;100.00;99804.31;5103188;27;20115;-73
2024/01/01 05:43:38;;;;;;;12.20;2.75;;;;;;;7.44;100.00;99810.47;5088455;27;20137;-74
2024/01/01 05:46:03;;;;;;;12.98;2.80;;;;;;;7.49;100.00;99812.81;5086072;27;20039;-73
2024/01/01 05:48:29;;;;;;;19.60;2.97;;;;;;;7.44;100.00;99805.16;5071327;28;20037;-73
2024/01/01 05:50:55;;;;;;;20.75;3.28;;;;;;;7.49;100.00;99816.31;5103898;27;20035;-72
2024/01/01 05:53:20;;;;;;;18.67;3.05;;;;;;;7.46;100.00;99815.66;5107500;27;20043;-73
2024/01/01 05:55:46;;;;;;;18.27;3.97;;;;;;;7.47;100.00;99820.84;5091417;27;20040;-73
2024/01/01 05:58:11;;;;;;;13.65;3.42;;;;;;;7.53;100.00;99815.16;5099447;27;20078;-73
2024/01/01 06:00:38;;;;;;;15.00;3.33;;;;;;;7.46;100.00;99821.81;5106634;27;20055;-74
2024/01/01 06:03:04;;;;;;;20.75;3.33;;;;;;;7.51;100.00;99825.00;5100062;27;20191;-73
2024/01/01 06:05:33;;;;;;;22.13;3.45;;;;;;;7.60;100.00;99838.63;5092589;27;20059;-74
2024/01/01 06:08:05;;;;;;;16.48;3.08;;;;;;;7.55;100.00;99841.56;5093805;28;20040;-73
2024/01/01 06:10:32;;;;;;;13.52;2.72;;;;;;;7.59;100.00;99837.78;5093807;27;20093;-73
2024/01/01 06:12:58;;;;;;;12.40;2.63;;;;;;;7.62;100.00;99842.84;5095183;28;20119;-73
2024/01/01 06:15:24;;;;;;;15.18;3.17;;;;;;;7.58;100.00;99851.13;5086620;27;20046;-73
2024/01/01 06:17:50;;;;;;;10.70;3.75;;;;;;;7.66;100.00;99841.69;5100156;27;20036;-73
2024/01/01 06:20:16;;;;;;;13.75;2.80;;;;;;;7.66;100.00;99847.00;5088935;28;20146;-73
2024/01/01 06:22:43;;;;;;;14.93;3.10;;;;;;;7.55;100.00;99843.38;5095208;28;20040;-73
2024/01/01 06:25:10;;;;;;;12.93;3.65;;;;;;;7.66;100.00;99859.41;5103402;27;20616;-73
2024/01/01 06:27:36;;;;;;;17.48;3.22;;;;;;;7.58;100.00;99857.31;5107768;27;20047;-73
2024/01/01 06:30:02;;;;;;;12.68;3.15;;;;;;;7.55;100.00;99859.28;5096373;27;20736;-73
2024/01/01 06:32:27;;;;;;;11.98;2.83;;;;;;;7.55;100.00;99872.56;5097854;27;20029;-73
2024/01/01 06:34:53;;;;;;;13.85;3.15;;;;;;;7.46;100.00;99866.06;5100427;28;20040;-74
2024/01/01 06:37:18;;;;;;;14.57;3.35;;;;;;;7.42;100.00;99867.19;5102554;27;20048;-73
2024/01/01 06:39:44;;;;;;;9.85;3.13;;;;;;;7.43;100.00;99869.78;5109187;27;20027;-74
2024/01/01 06:42:09;;;;;;;12.18;2.75;;;;;;;7.38;100.00;99884.25;5089311;27;20211;-72
2024/01/01 06:44:35;;;;;;;15.02;3.78;;;;;;;7.36;100.00;99880.88;5113870;27;20760;-73
2024/01/01 06:47:00;;;;;;;20.95;3.47;;;;;;;7.33;100.00;99903.16;5115348;27;20032;-73
2024/01/01 06:49:26;;;;;;;10.60;2.80;;;;;;;7.36;100.00;99902.09;5118578;27;20031;-73
2024/01/01 06:51:51;;;;;;;15.30;3.00;;;;;;;7.26;100.00;99907.13;5104588;28;20041;-73
2024/01/01 06:54:17;;;;;;;16.88;3.00;;;;;;;7.19;100.00;99904.03;5115800;27;20028;-73
2024/01/01 06:56:43;;;;;;;15.13;3.30;;;;;;;7.21;100.00;99904.78;5110067;28;20060;-72
2024/01/01 06:59:11;;;;;;;11.77;3.92;;;;;;;7.08;100.00;99914.50;5099073;27;20103;-73
2024/01/01 07:01:37;;;;;;;9.57;2.35;;;;;;;7.14;100.00;99926.50;5108938;28;20036;-73
2024/01/01 07:04:02;;;;;;;9.43;3.10;;;;;;;7.17;100.00;99921.84;5113200;27;20049;-73
2024/01/01 07:06:28;;;;;;;14.20;4.18;;;;;;;7.19;100.00;99933.22;5114633;27;20449;-72
2024/01/01 07:08:53;;;;;;;19.95;3.90;;;;;;;7.11;100.00;99927.53;5115362;27;20071;-73
2024/01/01 07:11:19;;;;;;;20.13;3.30;;;;;;;7.17;100.00;99940.38;5093446;27;20032;-73
2024/01/01 07:13:44;;;;;;;12.35;2.63;;;;;;;7.13;100.00;99938.03;5106245;27;20031;-73
2024/01/01 07:16:10;;;;;;;10.85;2.90;;;;;;;7.05;100.00;99942.97;5098587;27;20043;-73
2024/01/01 07:18:36;;;;;;;13.15;3.85;;;;;;;7.09;100.00;99944.50;5120842;27;20044;-73
2024/01/01 07:21:02;;;;;;;13.10;2.72;;;;;;;7.04;100.00;99951.88;5098590;28;20036;-73
2024/01/01 07:23:30;;;;;;;12.23;3.45;;;;;;;7.05;100.00;99958.88;5115141;27;20066;-73
2024/01/01 07:25:56;;;;;;;17.55;3.15;;;;;;;7.16;100.00;99970.50;5102467;28;20020;-73
2024/01/01 07:28:25;;;;;;;11.85;2.83;;;;;;;7.10;100.00;99976.19;5109932;27;20036;-73
2024/01/01 07:30:51;;;;;;;18.17;3.15;;;;;;;7.06;100.00;99964.09;5086905;27;20055;-73
2024/01/01 07:33:16;;;;;;;16.42;3.67;;;;;;;7.12;100.00;99987.56;5110128;27;20032;-73
2024/01/01 07:35:42;;;;;;;22.25;4.57;;;;;;;7.11;100.00;99979.69;5106542;27;20035;-73
2024/01/01 07:38:08;;;;;;;16.15;3.85;;;;;;;7.13;100.00;99983.09;5111377;27;20848;-73
2024/01/01 07:40:33;;;;;;;22.10;4.03;;;;;;;7.09;100.00;99990.41;5087947;27;20036;-73
2024/01/01 07:42:59;;;;;;;12.93;3.28;;;;;;;7.06;100.00;99993.25;5105046;27;20189;-73
2024/01/01 07:45:24;;;;;;;13.70;3.83;;;;;;;7.12;100.00;100002.59;5090136;27;20040;-73
2024/01/01 07:47:50;;;;;;;16.27;3.65;;;;;;;7.10;100.00;100013.31;5109538;27;20028;-73
2024/01/01 07:50:15;;;;;;;15.20;3.38;;;;;;;7.08;100.00;100007.28;5105523;27;20074;-73
2024/01/01 07:52:41;;;;;;;14.65;3.55;;;;;;;7.24;100.00;100012.47;5110972;27;20764;-73
2024/01/01 07:55:07;;;;;;;14.93;4.00;;;;;;;7.23;100.00;100016.06;5077543;28;20575;-74
2024/01/01 07:57:33;;;;;;;18.17;3.53;;;;;;;7.21;100.00;100012.63;5084123;27;20558;-74
2024/01/01 07:59:59;;;;;;;14.43;4.05;;;;;;;7.29;100.00;100013.03;5099290;27;20500;-73
2024/01/01 08:02:25;;;;;;;12.23;3.35;;;;;;;7.26;100.00;100008.75;5077291;27;20036;-73
2024/01/01 08:04:50;;;;;;;26.05;3.85;;;;;;;7.29;100.00;100010.38;5104570;27;20047;-74
2024/01/01 08:07:16;;;;;;;16.77;3.88;;;;;;;7.34;100.00;100020.69;5093764;27;20040;-73
2024/01/01 08:09:41;;;;;;;19.83;3.75;;;;;;;7.30;100.00;100016.53;5096160;27;20040;-74
2024/01/01 08:12:07;;;;;;;15.23;3.50;;;;;;;7.35;100.00;100022.38;5078964;27;20060;-73
2024/01/01 08:14:32;;;;;;;19.70;3.90;;;;;;;7.14;100.00;100032.53;5099857;27;20454;-73
2024/01/01 08:16:58;;;;;;;12.07;4.05;;;;;;;7.12;100.00;100032.63;5096782;27;20040;-73
2024/01/01 08:19:23;;;;;;;19.33;4.18;;;;;;;7.12;100.00;100043.22;5093553;27;20806;-73
2024/01/01 08:21:49;;;;;;;18.73;4.00;;;;;;;7.20;100.00;100040.09;5092842;27;23082;-73
2024/01/01 08:24:14;;;;;;;12.60;3.67;;;;;;;7.25;100.00;100040.66;5094449;27;20036;-73
2024/01/01 08:26:39;;;;;;;16.20;3.35;;;;;;;7.30;100.00;100035.94;5097529;27;20040;-73
2024/01/01 08:29:05;;;;;;;16.33;4.38;;;;;;;7.36;100.00;100045.31;5095551;27;20047;-73
2024/01/01 08:31:31;;;;;;;20.42;4.05;;;;;;;7.35;100.00;100049.75;5081515;27;20520;-73
2024/01/01 08:33:56;;;;;;;16.80;4.30;;;;;;;7.49;100.00;100046.25;5091112;27;20031;-73
2024/01/01 08:36:21;;;;;;;19.55;4.47;;;;;;;7.46;100.00;100052.56;5092345;27;20039;-73
2024/01/01 08:38:47;;;;;;;19.38;3.85;;;;;;;7.51;100.00;100058.44;5095517;27;20055;-73
2024/01/01 08:41:13;;;;;;;16.23;4.13;;;;;;;7.54;100.00;100057.41;5092021;28;20138;-73
2024/01/01 08:43:38;;;;;;;12.93;4.05;;;;;;;7.57;100.00;100059.84;5102402;27;20040;-73
2024/01/01 08:46:05;;;;;;;18.58;3.58;;;;;;;7.55;100.00;100066.22;5088917;27;20561;-73
2024/01/01 08:48:31;;;;;;;21.65;3.65;;;;;;;7.57;100.00;100069.63;5100036;27;20794;-73
2024/01/01 08:50:56;;;;;;;11.30;3.10;;;;;;;7.52;100.00;100072.56;5088992;27;20148;-73
2024/01/01 08:53:22;;;;;;;15.77;3.50;;;;;;;7.59;100.00;100081.84;5082939;27;20040;-73
2024/01/01 08:55:48;;;;;;;17.05;3.97;;;;;;;7.64;100.00;100090.38;5102183;27;20036;-73
2024/01/01 08:58:13;;;;;;;16.67;4.43;;;;;;;7.69;100.00;100084.78;5093991;27;20032;-73
2024/01/01 09:00:39;;;;;;;13.57;4.10;;;;;;;7.82;100.00;100103.41;5106130;27;20092;-73
2024/01/01 09:03:04;;;;;;;17.13;4.32;;;;;;;7.78;100.00;100095.66;5092761;27;20109;-73
2024/01/01 09:05:30;;;;;;;11.88;3.75;;;;;;;7.71;100.00;100096.97;5089907;27;20105;-73
2024/01/01 09:07:56;;;;;;;20.45;4.07;;;;;;;7.85;100.00;100106.72;5090539;27;20040;-73
2024/01/01 09:10:22;;;;;;;11.73;3.65;;;;;;;7.68;100.00;100105.16;5093994;27;20047;-74
2024/01/01 09:12:48;;;;;;;16.20;3.80;;;;;;;7.82;100.00;100106.91;5089561;27;20032;-73
2024/01/01 09:15:16;;;;;;;13.95;3.45;;;;;;;7.86;100.00;100113.72;5090733;27;20032;-73
2024/01/01 09:17:43;;;;;;;14.20;3.95;;;;;;;7.87;100.00;100123.38;5091350;27;20039;-73
2024/01/01 09:20:10;;;;;;;19.73;4.30;;;;;;;7.92;100.00;100121.28;5100140;27;20044;-73
2024/01/01 09:22:36;;;;;;;10.00;3.45;;;;;;;8.01;100.00;100123.38;5083620;27;20039;-74
2024/01/01 09:25:04;;;;;;;16.10;3.45;;;;;;;7.92;100.00;100133.72;5106099;27;20040;-73
2024/01/01 09:27:30;;;;;;;15.00;3.88;;;;;;;7.87;100.00;100144.63;5080962;27;20055;-73
2024/01/01 09:29:55;;;;;;;12.48;3.97;;;;;;;7.85;100.00;100140.38;5078614;27;20035;-73
2024/01/01 09:32:21;;;;;;;15.73;3.90;;;;;;;7.85;100.00;100143.03;5091781;27;20032;-73
2024/01/01 09:34:47;;;;;;;16.85;4.97;;;;;;;7.63;100.00;100143.50;5075855;27;20970;-74
2024/01/01 09:37:12;;;;;;;12.88;4.10;;;;;;;7.74;100.00;100171.09;5091093;27;20059;-74
2024/01/01 09:39:38;;;;;;;18.60;5.00;;;;;;;7.78;100.00;100174.38;5092926;27;20041;-74
2024/01/01 09:42:04;;;;;;;16.70;4.68;;;;;;;7.65;100.00;100181.44;5094479;27;20115;-74
2024/01/01 09:44:30;;;;;;;22.17;4.88;;;;;;;7.87;100.00;100179.13;5094359;27;20042;-74
2024/01/01 09:46:56;;;;;;;15.57;4.43;;;;;;;7.89;100.00;100179.06;5098472;27;20033;-74
2024/01/01 09:49:22;;;;;;;20.58;4.85;;;;;;;8.01;100.00;100183.56;5097448;27;20083;-73
2024/01/01 09:51:48;;;;;;;21.05;4.97;;;;;;;8.21;100.00;100177.00;5095298;27;20031;-73
2024/01/01 09:54:13;;;;;;;17.17;3.85;;;;;;;8.24;100.00;100169.69;5088980;27;20024;-74
2024/01/01 09:56:39;;;;;;;16.38;4.25;;;;;;;8.12;100.00;100175.78;5091846;27;20039;-74
2024/01/01 09:59:04;;;;;;;17.92;5.45;;;;;;;8.22;100.00;100173.38;5094203;27;20653;-73
2024/01/01 10:01:31;;;;;;;13.25;3.78;;;;;;;8.00;100.00;100182.72;5099876;27;20417;-74
2024/01/01 10:04:03;;;;;;;16.55;5.28;;;;;;;7.91;100.00;100190.41;5102829;27;20737;-73
2024/01/01 10:06:29;;;;;;;15.57;4.00;;;;;;;7.89;100.00;100194.97;5096275;27;20036;-74
2024/01/01 10:09:09;;;;;;;18.92;5.50;;;;;;;7.87;100.00;100195.06;5080476;27;20436;-73
2024/01/01 10:11:38;;;;;;;18.25;3.90;;;;;;;7.66;100.00;100194.59;5096868;27;20139;-73
2024/01/01 10:14:05;;;;;;;13.57;3.80;;;;;;;7.65;100.00;100202.66;5093385;27;20059;-73
2024/01/01 10:16:31;;;;;;;12.48;4.25;;;;;;;7.78;100.00;100212.44;5088486;27;20035;-74
2024/01/01 10:18:58;;;;;;;15.40;3.88;;;;;;;7.88;100.00;100199.44;5078386;28;20415;-73
2024/01/01 10:21:31;;;;;;;10.88;3.55;;;;;;;7.98;100.00;100208.53;5090954;27;20039;-73
2024/01/01 10:23:58;;;;;;;12.60;3.65;;;;;;;8.18;100.00;100214.34;5086085;27;20047;-74
2024/01/01 10:26:24;;;;;;;12.27;3.35;;;;;;;8.22;100.00;100229.16;5095051;27;20501;-73
2024/01/01 10:28:50;;;;;;;13.18;3.60;;;;;;;8.11;100.00;100227.19;5081244;28;20040;-73
2024/01/01 10:31:15;;;;;;;12.40;4.18;;;;;;;8.05;100.00;100230.22;5069703;27;20117;-74
2024/01/01 10:33:42;;;;;;;12.65;3.95;;;;;;;8.07;100.00;100240.75;5100493;27;20048;-74
2024/01/01 10:36:08;;;;;;;12.15;4.32;;;;;;;7.93;100.00;100229.22;5094646;27;22246;-73
2024/01/01 10:38:36;;;;;;;14.48;4.32;;;;;;;7.88;100.00;100223.34;5104733;27;20757;-74
2024/01/01 10:41:02;;;;;;;10.68;3.72;;;;;;;7.69;100.00;100236.88;5097503;27;20048;-73
2024/01/01 10:43:28;;;;;;;15.70;4.03;;;;;;;7.65;100.00;100238.00;5092739;27;20036;-73
2024/01/01 10:46:05;;;;;;;15.63;3.60;;;;;;;7.72;100.00;100249.94;5092168;27;20036;-73
2024/01/01 10:48:35;;;;;;;14.60;4.20;;;;;;;7.72;100.00;100244.63;5083784;27;20584;-74
2024/01/01 10:51:21;;;;;;;15.70;3.47;;;;;;;7.80;100.00;100249.47;5103528;27;20039;-73
2024/01/01 10:54:02;;;;;;;14.15;4.25;;;;;;;7.87;100.00;100249.94;5092972;27;20032;-72
2024/01/01 10:57:03;;;;;;;13.80;4.32;;;;;;;7.74;100.00;100252.53;5089662;27;20098;-73
2024/01/01 10:59:44;;;;;;;12.27;3.78;;;;;;;7.89;100.00;100250.72;5090328;27;20046;-73
2024/01/01 11:02:10;;;;;;;8.85;3.85;;;;;;;7.87;100.00;100250.78;5074922;27;20866;-74
2024/01/01 11:04:36;;;;;;;16.38;4.40;;;;;;;7.78;100.00;100251.34;5079801;27;20171;-74
2024/01/01 11:07:02;;;;;;;12.38;3.95;;;;;;;7.63;100.00;100255.84;5103205;27;20036;-73
2024/01/01 11:09:27;;;;;;;12.27;4.32;;;;;;;7.75;100.00;100254.22;5100852;27;20554;-74
2024/01/01 11:11:54;;;;;;;8.35;3.70;;;;;;;7.98;100.00;100256.31;5092917;27;20043;-73
2024/01/01 11:14:23;;;;;;;9.15;4.20;;;;;;;8.35;100.00;100247.84;5092313;27;20047;-73
2024/01/01 11:16:51;;;;;;;10.48;3.88;;;;;;;8.54;100.00;100243.09;5096437;27;21437;-73